Enter the Airport ICAO Code

Search by Airport or City

Current Weather

SARE | Resistencia International Airport

Resistencia, Chaco, Argentina

Last Update 39 Minutes Ago

Light Rain

Temperature of 15 ēC

Moderate Winds from South

Temperature

15 ēC

Dew Point Temperature

13 ēC

Relative Humidity

87.89 %

Wind Direction

South (180ē, Without Significant Variations)

Wind Velocity

24 km/h (13 kt)

Gusts

None

Visibility

Reduced to 6.0 Kilometers

Sea Level Pressure

1023 hPa (Hectopascals)

Layers of Clouds

60% to 90% of Sky Covered from 488 mts (1600 ft) Above Ground Level.

90% to 100% of Sky Covered from 1524 mts (5000 ft) Above Ground Level.

METAR SARE 211300Z 18013KT 6000 -RA BKN016 OVC050 15/13 Q1023

Weather Forecast

SARE | Resistencia International Airport

Resistencia, Chaco, Argentina

Forecast valid for the next 22 Hours

From now on it is expected:

Light Rain

Light to Moderate Winds from South

In 2 to 3 hours it is expected the begining of:

Mostly Cloudy Sky

Moderate Winds from South

Maximum Temperature

24 ēC in 4 Hours

Minimum Temperature

15 ēC in 21 Hours

TAF SARE 211100Z 2112/2212 20005KT 8000 -RA BKN020 OVC050 TX24/2118Z TN15/2211Z BECMG 2116/2117 18010KT 9999 BKN020